createdAt,value
2018-09-12T00:01:00.179Z,4.83
2018-09-12T00:03:28.828Z,4.90
2018-09-12T00:05:57.713Z,4.77
2018-09-12T00:08:26.829Z,5.67
2018-09-12T00:10:55.583Z,4.93
2018-09-12T00:13:24.307Z,5.07
2018-09-12T00:15:53.270Z,4.53
2018-09-12T00:18:22.458Z,4.57
2018-09-12T00:20:51.371Z,5.27
2018-09-12T00:23:20.267Z,4.83
2018-09-12T00:25:49.299Z,4.60
2018-09-12T00:28:18.459Z,4.40
2018-09-12T00:30:47.094Z,4.90
2018-09-12T00:33:16.119Z,5.27
2018-09-12T00:35:45.062Z,5.03
2018-09-12T00:38:13.702Z,4.70
2018-09-12T00:40:42.971Z,4.70
2018-09-12T00:43:11.838Z,5.37
2018-09-12T00:45:40.806Z,5.10
2018-09-12T00:48:10.119Z,5.23
2018-09-12T00:50:38.775Z,5.23
2018-09-12T00:53:07.584Z,4.80
2018-09-12T00:55:36.690Z,5.50
2018-09-12T00:58:05.344Z,5.00
2018-09-12T01:00:34.020Z,5.17
2018-09-12T01:03:03.015Z,4.77
2018-09-12T01:05:31.907Z,4.83
2018-09-12T01:08:01.108Z,5.13
2018-09-12T01:10:30.052Z,5.07
2018-09-12T01:12:59.203Z,5.37
2018-09-12T01:15:28.118Z,5.27
2018-09-12T01:17:57.303Z,5.07
2018-09-12T01:20:26.074Z,5.03
2018-09-12T01:22:54.689Z,4.90
2018-09-12T01:25:23.448Z,5.10
2018-09-12T01:27:57.795Z,4.90
2018-09-12T01:30:26.992Z,4.70
2018-09-12T01:32:57.176Z,5.10
2018-09-12T01:35:26.263Z,4.67
2018-09-12T01:37:55.501Z,5.30
2018-09-12T01:40:24.300Z,4.83
2018-09-12T01:42:52.974Z,4.87
2018-09-12T01:45:21.997Z,5.27
2018-09-12T01:47:51.022Z,4.73
2018-09-12T01:50:20.089Z,5.47
2018-09-12T01:52:49.492Z,4.90
2018-09-12T01:55:18.623Z,5.00
2018-09-12T01:57:47.365Z,5.47
2018-09-12T02:00:18.273Z,5.40
2018-09-12T02:02:47.900Z,4.67
2018-09-12T02:05:16.927Z,4.83
2018-09-12T02:07:46.222Z,6.20
2018-09-12T02:10:15.344Z,5.20
2018-09-12T02:12:44.278Z,5.63
2018-09-12T02:15:13.303Z,5.93
2018-09-12T02:17:42.276Z,4.80
2018-09-12T02:20:11.490Z,5.23
2018-09-12T02:22:40.308Z,5.07
2018-09-12T02:25:09.156Z,4.93
2018-09-12T02:27:37.839Z,5.27
2018-09-12T02:30:06.925Z,5.00
2018-09-12T02:32:35.735Z,6.23
2018-09-12T02:35:04.807Z,6.00
2018-09-12T02:37:33.728Z,6.00
2018-09-12T02:40:02.659Z,5.90
2018-09-12T02:42:31.938Z,5.90
2018-09-12T02:45:00.957Z,5.10
2018-09-12T02:47:35.146Z,5.40
2018-09-12T02:50:04.971Z,5.07
2018-09-12T02:52:33.915Z,5.70
2018-09-12T02:55:03.160Z,5.77
2018-09-12T02:57:32.206Z,5.67
2018-09-12T03:00:00.860Z,6.00
2018-09-12T03:02:31.138Z,5.87
2018-09-12T03:04:59.931Z,5.20
2018-09-12T03:07:29.251Z,5.77
2018-09-12T03:09:58.430Z,6.30
2018-09-12T03:12:27.727Z,5.50
2018-09-12T03:14:56.515Z,6.80
2018-09-12T03:17:25.744Z,6.33
2018-09-12T03:19:54.723Z,6.47
2018-09-12T03:22:23.729Z,9.10
2018-09-12T03:24:52.981Z,6.27
2018-09-12T03:27:21.796Z,5.63
2018-09-12T03:29:50.470Z,5.57
2018-09-12T03:32:19.197Z,7.93
2018-09-12T03:34:48.010Z,6.03
2018-09-12T03:37:16.965Z,7.07
2018-09-12T03:39:46.383Z,6.93
2018-09-12T03:42:15.296Z,7.33
2018-09-12T03:44:44.094Z,7.53
2018-09-12T03:47:13.105Z,7.33
2018-09-12T03:49:42.040Z,6.10
2018-09-12T03:52:10.966Z,7.60
2018-09-12T03:54:39.660Z,7.30
2018-09-12T03:57:08.355Z,9.47
2018-09-12T03:59:37.015Z,8.23
2018-09-12T04:02:06.123Z,8.40
2018-09-12T04:04:34.968Z,7.33
2018-09-12T04:07:03.847Z,9.47
2018-09-12T04:09:33.104Z,7.33
2018-09-12T04:12:01.949Z,9.27
2018-09-12T04:14:30.687Z,8.83
2018-09-12T04:16:59.665Z,10.10
2018-09-12T04:19:28.833Z,10.60
2018-09-12T04:21:57.925Z,8.17
2018-09-12T04:24:27.042Z,8.37
2018-09-12T04:26:55.606Z,8.30
2018-09-12T04:29:24.325Z,8.07
2018-09-12T04:31:53.798Z,11.17
2018-09-12T04:34:23.046Z,10.50
2018-09-12T04:36:52.104Z,10.33
2018-09-12T04:39:21.567Z,8.83
2018-09-12T04:41:50.165Z,13.03
2018-09-12T04:44:19.065Z,9.57
2018-09-12T04:46:48.416Z,9.50
2018-09-12T04:49:17.083Z,9.10
2018-09-12T04:51:46.271Z,9.63
2018-09-12T04:54:15.351Z,10.67
2018-09-12T04:56:44.011Z,11.90
2018-09-12T04:59:12.823Z,12.17
2018-09-12T05:01:41.970Z,11.17
2018-09-12T05:04:11.017Z,10.47
2018-09-12T05:06:39.787Z,9.90
2018-09-12T05:09:10.651Z,11.63
2018-09-12T05:11:39.505Z,13.27
2018-09-12T05:14:08.375Z,12.47
2018-09-12T05:16:37.824Z,11.97
2018-09-12T05:19:07.138Z,11.20
2018-09-12T05:21:36.266Z,13.80
2018-09-12T05:24:05.027Z,13.13
2018-09-12T05:26:34.034Z,12.67
2018-09-12T05:29:02.864Z,12.80
2018-09-12T05:31:32.179Z,12.10
2018-09-12T05:34:01.314Z,15.80
2018-09-12T05:36:30.354Z,13.97
2018-09-12T05:38:59.843Z,12.23
2018-09-12T05:41:28.916Z,13.90
2018-09-12T05:43:58.034Z,13.13
2018-09-12T05:46:27.070Z,13.27
2018-09-12T05:48:56.174Z,15.63
2018-09-12T05:51:24.805Z,15.63
2018-09-12T05:53:53.986Z,12.83
2018-09-12T05:56:22.805Z,13.10
2018-09-12T05:58:51.434Z,13.73
2018-09-12T06:01:20.825Z,12.53
2018-09-12T06:03:49.769Z,10.37
2018-09-12T06:06:18.527Z,10.93
2018-09-12T06:08:47.806Z,10.47
2018-09-12T06:11:16.539Z,9.63
2018-09-12T06:13:45.257Z,10.00
2018-09-12T06:16:14.767Z,10.20
2018-09-12T06:18:43.709Z,9.93
2018-09-12T06:21:12.411Z,9.27
2018-09-12T06:23:41.068Z,8.43
2018-09-12T06:26:09.961Z,7.37
2018-09-12T06:28:39.545Z,7.07
2018-09-12T06:31:09.003Z,6.80
2018-09-12T06:33:38.302Z,6.30
2018-09-12T06:36:07.795Z,5.93
2018-09-12T06:38:37.066Z,5.67
2018-09-12T06:41:06.449Z,6.40
2018-09-12T06:43:35.823Z,5.20
2018-09-12T06:46:04.974Z,5.03
2018-09-12T06:48:34.307Z,5.30
2018-09-12T06:51:03.277Z,5.80
2018-09-12T06:53:32.272Z,5.53
2018-09-12T06:56:01.535Z,5.73
2018-09-12T06:58:31.009Z,4.70
2018-09-12T07:01:01.786Z,6.30
2018-09-12T07:03:31.144Z,4.87
2018-09-12T07:06:00.415Z,5.30
2018-09-12T07:08:29.669Z,5.43
2018-09-12T07:10:58.921Z,4.60
2018-09-12T07:13:28.359Z,5.20
2018-09-12T07:15:58.020Z,6.20
2018-09-12T07:18:27.908Z,4.77
2018-09-12T07:20:57.359Z,5.10
2018-09-12T07:23:26.745Z,5.00
2018-09-12T07:25:55.815Z,4.63
2018-09-12T07:28:25.238Z,5.43
2018-09-12T07:30:55.018Z,4.80
2018-09-12T07:33:24.539Z,4.70
2018-09-12T07:35:54.067Z,4.70
2018-09-12T07:38:23.865Z,4.93
2018-09-12T07:40:53.194Z,4.87
2018-09-12T07:43:22.510Z,4.73
2018-09-12T07:45:51.839Z,4.97
2018-09-12T07:48:21.088Z,4.83
2018-09-12T07:50:50.925Z,4.77
2018-09-12T07:53:20.161Z,4.83
2018-09-12T07:55:49.398Z,4.97
2018-09-12T07:58:18.746Z,4.30
2018-09-12T08:00:47.996Z,4.60
2018-09-12T08:03:18.102Z,4.63
2018-09-12T08:05:47.563Z,4.40
2018-09-12T08:08:17.079Z,4.23
2018-09-12T08:10:46.431Z,5.20
2018-09-12T08:13:15.790Z,5.70
2018-09-12T08:15:45.390Z,4.97
2018-09-12T08:18:14.891Z,5.50
2018-09-12T08:20:43.897Z,4.70
2018-09-12T08:23:13.013Z,4.90
2018-09-12T08:25:42.495Z,4.93
2018-09-12T08:28:11.742Z,4.80
2018-09-12T08:30:41.081Z,5.27
2018-09-12T08:33:10.382Z,4.20
2018-09-12T08:35:39.702Z,4.87
2018-09-12T08:38:09.015Z,4.57
2018-09-12T08:40:38.254Z,4.97
2018-09-12T08:43:07.592Z,4.83
2018-09-12T08:45:37.793Z,4.90
2018-09-12T08:48:07.323Z,4.70
2018-09-12T08:50:36.282Z,4.93
2018-09-12T08:53:05.403Z,4.50
2018-09-12T08:55:34.822Z,5.85
2018-09-12T08:58:04.186Z,4.87
2018-09-12T09:00:35.757Z,4.63
2018-09-12T09:03:06.696Z,5.37
2018-09-12T09:05:35.979Z,5.10
2018-09-12T09:08:05.358Z,4.63
2018-09-12T09:10:34.617Z,5.28
2018-09-12T09:13:04.031Z,4.87
2018-09-12T09:15:33.073Z,3.93
2018-09-12T09:18:02.340Z,5.12
2018-09-12T09:20:31.582Z,4.95
2018-09-12T09:23:00.568Z,5.03
2018-09-12T09:25:30.279Z,4.60
2018-09-12T09:27:59.541Z,5.10
2018-09-12T09:30:31.062Z,4.47
2018-09-12T09:33:00.682Z,4.67
2018-09-12T09:35:30.660Z,4.40
2018-09-12T09:37:59.871Z,4.30
2018-09-12T09:40:29.163Z,4.78
2018-09-12T09:42:58.360Z,4.67
2018-09-12T09:45:27.616Z,4.65
2018-09-12T09:47:56.885Z,4.80
2018-09-12T09:50:25.926Z,4.42
2018-09-12T09:52:55.222Z,5.47
2018-09-12T09:55:24.363Z,4.62
2018-09-12T09:57:54.523Z,4.33
2018-09-12T10:00:29.045Z,3.98
2018-09-12T10:03:03.189Z,4.60
2018-09-12T10:05:37.291Z,4.90
2018-09-12T10:08:11.575Z,4.37
2018-09-12T10:10:41.702Z,4.70
2018-09-12T10:13:11.114Z,4.28
2018-09-12T10:15:40.638Z,4.53
2018-09-12T10:18:09.886Z,6.37
2018-09-12T10:20:39.232Z,4.35
2018-09-12T10:23:08.258Z,4.22
2018-09-12T10:25:37.682Z,4.95
2018-09-12T10:28:07.157Z,4.60
2018-09-12T10:30:36.607Z,4.55
2018-09-12T10:33:06.160Z,4.75
2018-09-12T10:35:35.708Z,5.75
2018-09-12T10:38:05.045Z,4.53
2018-09-12T10:40:34.035Z,4.05
2018-09-12T10:43:05.434Z,4.35
2018-09-12T10:45:34.728Z,4.05
2018-09-12T10:48:03.741Z,4.47
2018-09-12T10:50:32.695Z,4.58
2018-09-12T10:53:01.684Z,3.80
2018-09-12T10:55:30.950Z,4.70
2018-09-12T10:58:00.446Z,4.55
2018-09-12T11:00:29.875Z,4.50
2018-09-12T11:02:59.142Z,4.20
2018-09-12T11:05:28.506Z,3.50
2018-09-12T11:07:57.763Z,5.05
2018-09-12T11:10:27.158Z,4.47
2018-09-12T11:12:57.000Z,4.47
2018-09-12T11:15:26.323Z,4.65
2018-09-12T11:17:55.388Z,4.47
2018-09-12T11:20:25.283Z,4.40
2018-09-12T11:22:54.374Z,4.67
2018-09-12T11:25:23.778Z,4.62
2018-09-12T11:27:52.959Z,4.10
2018-09-12T11:30:22.285Z,4.78
2018-09-12T11:32:52.243Z,4.30
2018-09-12T11:35:21.583Z,4.25
2018-09-12T11:37:50.809Z,4.78
2018-09-12T11:40:20.151Z,4.50
2018-09-12T11:42:49.812Z,5.00
2018-09-12T11:45:19.340Z,4.75
2018-09-12T11:47:48.305Z,4.12
2018-09-12T11:50:17.316Z,4.62
2018-09-12T11:52:46.537Z,4.87
2018-09-12T11:55:16.079Z,5.25
2018-09-12T11:57:45.231Z,4.80
2018-09-12T12:00:14.527Z,4.20
2018-09-12T12:02:43.955Z,5.70
2018-09-12T12:05:13.860Z,4.28
2018-09-12T12:07:43.235Z,5.17
2018-09-12T12:10:12.788Z,5.10
2018-09-12T12:12:42.038Z,5.15
2018-09-12T12:15:11.818Z,4.70
2018-09-12T12:17:41.403Z,4.58
2018-09-12T12:20:10.390Z,5.22
2018-09-12T12:22:39.735Z,3.90
2018-09-12T12:25:09.365Z,4.50
2018-09-12T12:27:38.702Z,4.33
2018-09-12T12:30:07.878Z,5.12
2018-09-12T12:32:37.128Z,5.12
2018-09-12T12:35:06.365Z,4.47
2018-09-12T12:37:35.704Z,5.15
2018-09-12T12:40:05.087Z,5.03
2018-09-12T12:42:34.429Z,5.22
2018-09-12T12:45:04.179Z,4.90
2018-09-12T12:47:33.172Z,6.20
2018-09-12T12:50:02.130Z,4.67
2018-09-12T12:52:31.541Z,5.05
2018-09-12T12:55:00.702Z,7.85
2018-09-12T12:57:29.882Z,5.28
2018-09-12T12:59:59.273Z,5.65
2018-09-12T13:02:28.579Z,4.42
2018-09-12T13:04:57.926Z,4.80
2018-09-12T13:07:27.190Z,5.45
2018-09-12T13:09:56.547Z,4.12
2018-09-12T13:12:25.990Z,4.22
2018-09-12T13:14:55.276Z,4.97
2018-09-12T13:17:24.247Z,4.65
2018-09-12T13:19:53.617Z,4.55
2018-09-12T13:22:23.059Z,4.47
2018-09-12T13:24:52.191Z,4.12
2018-09-12T13:27:21.558Z,4.83
2018-09-12T13:29:50.781Z,3.72
2018-09-12T13:32:20.743Z,4.25
2018-09-12T13:34:49.970Z,4.87
2018-09-12T13:37:19.254Z,4.37
2018-09-12T13:39:48.520Z,4.30
2018-09-12T13:42:17.511Z,4.60
2018-09-12T13:44:46.544Z,3.72
2018-09-12T13:47:15.546Z,4.17
2018-09-12T13:49:44.978Z,4.53
2018-09-12T13:52:14.212Z,5.12
2018-09-12T13:54:43.418Z,6.60
2018-09-12T13:57:12.422Z,4.83
2018-09-12T13:59:41.971Z,5.95
2018-09-12T14:02:11.233Z,7.00
2018-09-12T14:04:40.555Z,5.80
2018-09-12T14:07:09.879Z,4.42
2018-09-12T14:09:39.260Z,5.85
2018-09-12T14:12:08.141Z,5.58
2018-09-12T14:14:36.999Z,4.75
2018-09-12T14:17:05.902Z,6.85
2018-09-12T14:19:34.975Z,8.55
2018-09-12T14:22:04.154Z,5.72
2018-09-12T14:24:33.499Z,6.83
2018-09-12T14:27:02.615Z,4.87
2018-09-12T14:29:31.795Z,6.37
2018-09-12T14:32:01.096Z,4.60
2018-09-12T14:34:30.231Z,4.87
2018-09-12T14:36:59.446Z,4.80
2018-09-12T14:39:28.802Z,4.85
2018-09-12T14:41:57.706Z,5.03
2018-09-12T14:44:26.554Z,4.05
2018-09-12T14:46:55.694Z,4.60
2018-09-12T14:49:24.637Z,5.65
2018-09-12T14:51:53.506Z,4.83
2018-09-12T14:54:22.391Z,6.17
2018-09-12T14:56:51.303Z,7.50
2018-09-12T14:59:20.382Z,4.37
2018-09-12T15:01:49.403Z,3.58
2018-09-12T15:04:18.303Z,4.17
2018-09-12T15:06:47.476Z,4.70
2018-09-12T15:09:16.734Z,3.58
2018-09-12T15:11:45.476Z,3.58
2018-09-12T15:14:14.249Z,4.03
2018-09-12T15:16:43.266Z,6.55
2018-09-12T15:19:12.248Z,4.03
2018-09-12T15:21:41.102Z,5.05
2018-09-12T15:24:10.092Z,3.87
2018-09-12T15:26:39.571Z,4.78
2018-09-12T15:29:09.167Z,4.00
2018-09-12T15:31:38.317Z,4.35
2018-09-12T15:34:07.551Z,4.33
2018-09-12T15:36:36.650Z,4.35
2018-09-12T15:39:08.395Z,4.37
2018-09-12T15:41:37.243Z,4.80
2018-09-12T15:44:06.206Z,4.62
2018-09-12T15:46:35.765Z,4.80
2018-09-12T15:49:05.011Z,4.97
2018-09-12T15:51:34.195Z,4.90
2018-09-12T15:54:03.460Z,4.97
2018-09-12T15:56:32.655Z,4.58
2018-09-12T15:59:02.092Z,5.10
2018-09-12T16:01:31.242Z,4.90
2018-09-12T16:04:00.498Z,4.85
2018-09-12T16:06:29.716Z,5.70
2018-09-12T16:08:58.651Z,5.28
2018-09-12T16:11:27.574Z,5.80
2018-09-12T16:13:56.356Z,5.58
2018-09-12T16:16:25.438Z,5.20
2018-09-12T16:18:54.423Z,4.80
2018-09-12T16:21:23.909Z,4.70
2018-09-12T16:23:53.338Z,5.05
2018-09-12T16:26:22.664Z,5.17
2018-09-12T16:28:51.919Z,5.60
2018-09-12T16:31:21.233Z,5.65
2018-09-12T16:33:50.493Z,6.92
2018-09-12T16:36:19.841Z,7.20
2018-09-12T16:38:48.762Z,5.58
2018-09-12T16:41:17.554Z,6.70
2018-09-12T16:43:46.576Z,5.70
2018-09-12T16:46:15.722Z,6.62
2018-09-12T16:48:45.123Z,6.10
2018-09-12T16:51:14.296Z,6.92
2018-09-12T16:53:43.523Z,5.40
2018-09-12T16:56:12.533Z,5.60
2018-09-12T16:58:41.720Z,6.53
2018-09-12T17:01:10.988Z,6.67
2018-09-12T17:03:40.196Z,7.03
2018-09-12T17:06:09.162Z,7.43
2018-09-12T17:08:37.953Z,6.23
2018-09-12T17:11:06.890Z,7.07
2018-09-12T17:13:36.215Z,7.37
2018-09-12T17:16:05.632Z,6.27
2018-09-12T17:18:34.850Z,6.13
2018-09-12T17:21:04.156Z,6.77
2018-09-12T17:23:33.378Z,8.30
2018-09-12T17:26:02.487Z,6.97
2018-09-12T17:28:32.059Z,7.80
2018-09-12T17:31:01.299Z,7.67
2018-09-12T17:33:30.595Z,9.47
2018-09-12T17:35:59.535Z,6.43
2018-09-12T17:38:28.506Z,7.33
2018-09-12T17:40:57.526Z,7.23
2018-09-12T17:43:26.607Z,7.93
2018-09-12T17:45:55.473Z,8.17
2018-09-12T17:48:24.336Z,10.43
2018-09-12T17:50:53.198Z,9.30
2018-09-12T17:53:22.561Z,11.90
2018-09-12T17:55:51.725Z,9.50
2018-09-12T17:58:21.095Z,9.67
2018-09-12T18:00:50.875Z,9.17
2018-09-12T18:03:20.288Z,8.17
2018-09-12T18:05:49.225Z,8.93
2018-09-12T18:08:18.748Z,8.60
2018-09-12T18:10:48.192Z,8.73
2018-09-12T18:13:17.486Z,11.43
2018-09-12T18:15:46.848Z,11.03
2018-09-12T18:18:16.571Z,8.70
2018-09-12T18:20:45.868Z,8.93
2018-09-12T18:23:15.003Z,9.37
2018-09-12T18:25:44.343Z,9.97
2018-09-12T18:28:13.348Z,13.63
2018-09-12T18:30:42.947Z,8.60
2018-09-12T18:33:12.139Z,8.63
2018-09-12T18:35:41.704Z,9.30
2018-09-12T18:38:10.957Z,9.57
2018-09-12T18:40:40.188Z,9.17
2018-09-12T18:43:09.381Z,8.47
2018-09-12T18:45:38.570Z,9.73
2018-09-12T18:48:08.088Z,9.30
2018-09-12T18:50:37.478Z,9.40
2018-09-12T18:53:06.680Z,8.53
2018-09-12T18:55:35.873Z,7.80
2018-09-12T18:58:06.316Z,10.07
2018-09-12T19:00:35.580Z,7.47
2018-09-12T19:03:04.490Z,8.03
2018-09-12T19:05:35.072Z,8.40
2018-09-12T19:08:04.606Z,7.03
2018-09-12T19:10:33.597Z,7.87
2018-09-12T19:13:03.347Z,8.17
2018-09-12T19:15:32.231Z,8.50
2018-09-12T19:18:01.481Z,6.87
2018-09-12T19:20:30.664Z,8.73
2018-09-12T19:22:59.965Z,7.20
2018-09-12T19:25:30.114Z,6.97
2018-09-12T19:28:00.362Z,7.23
2018-09-12T19:30:29.970Z,8.07
2018-09-12T19:32:58.887Z,7.10
2018-09-12T19:35:29.119Z,7.03
2018-09-12T19:37:57.906Z,6.50
2018-09-12T19:40:27.220Z,6.93
2018-09-12T19:42:56.490Z,7.33
2018-09-12T19:45:26.015Z,6.40
2018-09-12T19:47:56.024Z,7.37
2018-09-12T19:50:25.293Z,7.27
2018-09-12T19:52:55.002Z,5.97
2018-09-12T19:55:24.750Z,6.60
2018-09-12T19:57:53.627Z,5.73
2018-09-12T20:00:22.906Z,7.20
2018-09-12T20:02:52.132Z,6.07
2018-09-12T20:05:21.380Z,6.50
2018-09-12T20:07:51.129Z,6.57
2018-09-12T20:10:20.290Z,6.53
2018-09-12T20:12:49.559Z,6.93
2018-09-12T20:15:18.702Z,6.13
2018-09-12T20:17:47.952Z,5.70
2018-09-12T20:20:17.675Z,7.17
2018-09-12T20:22:47.031Z,6.77
2018-09-12T20:25:16.264Z,6.73
2018-09-12T20:27:45.629Z,7.07
2018-09-12T20:30:15.963Z,7.43
2018-09-12T20:32:45.203Z,6.30
2018-09-12T20:35:14.114Z,6.43
2018-09-12T20:37:43.494Z,7.47
2018-09-12T20:40:13.203Z,7.17
2018-09-12T20:42:42.695Z,7.67
2018-09-12T20:45:11.950Z,7.80
2018-09-12T20:47:41.135Z,9.37
2018-09-12T20:50:10.377Z,12.00
2018-09-12T20:52:39.580Z,9.93
2018-09-12T20:55:09.418Z,8.43
2018-09-12T20:57:38.651Z,8.30
2018-09-12T21:00:07.824Z,8.10
2018-09-12T21:02:36.802Z,8.53
2018-09-12T21:05:05.630Z,7.73
2018-09-12T21:07:35.698Z,8.30
2018-09-12T21:10:05.157Z,9.47
2018-09-12T21:12:34.702Z,7.80
2018-09-12T21:15:03.915Z,7.00
2018-09-12T21:17:33.104Z,9.10
2018-09-12T21:20:02.206Z,8.70
2018-09-12T21:22:31.418Z,8.83
2018-09-12T21:25:01.938Z,8.80
2018-09-12T21:27:31.043Z,9.50
2018-09-12T21:29:59.988Z,8.73
2018-09-12T21:32:28.988Z,8.43
2018-09-12T21:34:57.879Z,8.33
2018-09-12T21:37:27.410Z,8.87
2018-09-12T21:39:56.677Z,8.17
2018-09-12T21:42:25.942Z,8.37
2018-09-12T21:44:55.197Z,8.60
2018-09-12T21:47:24.370Z,8.13
2018-09-12T21:49:53.563Z,8.73
2018-09-12T21:52:22.824Z,8.80
2018-09-12T21:54:51.994Z,8.53
2018-09-12T21:57:21.098Z,8.63
2018-09-12T21:59:50.026Z,7.77
2018-09-12T22:02:18.862Z,8.37
2018-09-12T22:04:47.551Z,8.20
2018-09-12T22:07:16.587Z,7.77
2018-09-12T22:09:45.382Z,7.47
2018-09-12T22:12:14.411Z,6.80
2018-09-12T22:14:43.435Z,7.13
2018-09-12T22:17:12.163Z,7.77
2018-09-12T22:19:40.951Z,7.80
2018-09-12T22:22:09.691Z,7.63
2018-09-12T22:24:38.702Z,6.27
2018-09-12T22:27:07.596Z,7.30
2018-09-12T22:29:36.471Z,7.37
2018-09-12T22:32:05.134Z,7.40
2018-09-12T22:34:33.791Z,7.80
2018-09-12T22:37:02.699Z,8.10
2018-09-12T22:39:31.486Z,7.10
2018-09-12T22:42:00.397Z,7.20
2018-09-12T22:44:29.369Z,7.53
2018-09-12T22:46:58.353Z,6.93
2018-09-12T22:49:27.242Z,6.63
2018-09-12T22:51:56.076Z,7.63
2018-09-12T22:54:25.283Z,7.17
2018-09-12T22:56:54.039Z,6.93
2018-09-12T22:59:22.850Z,7.43
2018-09-12T23:01:51.737Z,7.40
2018-09-12T23:04:20.888Z,7.87
2018-09-12T23:06:49.845Z,7.40
2018-09-12T23:09:18.970Z,7.40
2018-09-12T23:11:47.799Z,7.93
2018-09-12T23:14:16.706Z,6.37
2018-09-12T23:16:45.844Z,6.93
2018-09-12T23:19:14.827Z,6.90
2018-09-12T23:21:43.770Z,6.90
2018-09-12T23:24:12.703Z,7.27
2018-09-12T23:26:41.865Z,7.37
2018-09-12T23:29:10.670Z,6.67
2018-09-12T23:31:39.351Z,6.67
2018-09-12T23:34:08.490Z,7.03
2018-09-12T23:36:37.692Z,8.27
2018-09-12T23:39:09.870Z,7.17
2018-09-12T23:41:38.922Z,7.90
2018-09-12T23:44:08.174Z,7.73
2018-09-12T23:46:37.428Z,7.37
2018-09-12T23:49:06.715Z,7.97
2018-09-12T23:51:35.753Z,8.00
2018-09-12T23:54:04.993Z,7.73
2018-09-12T23:56:33.846Z,7.77
2018-09-12T23:59:02.561Z,7.73
